Time;durP1;ratioP1;P1;durP2;ratioP2;P2;SDS_P1;SDS_P2;PMS_P1;PMS_P2;Temp;Humidity;BMP_temperature;BMP_pressure;BME280_temperature;BME280_humidity;BME280_pressure;Samples;Min_cycle;Max_cycle;Signal;HPM_P1;HPM_P2
2023/11/05 00:02:17;;;;;;;8.77;3.65;;;7.60;99.90;;;;;;4992810;28;20023;-94
2023/11/05 00:04:42;;;;;;;10.25;3.90;;;7.60;99.90;;;;;;4990487;28;20035;-94
2023/11/05 00:07:08;;;;;;;12.68;4.28;;;7.60;99.90;;;;;;4992668;28;20038;-94
2023/11/05 00:09:33;;;;;;;8.10;3.42;;;7.60;99.90;;;;;;4988338;28;20031;-94
2023/11/05 00:11:59;;;;;;;8.02;3.78;;;7.70;99.90;;;;;;4994534;28;20077;-95
2023/11/05 00:14:25;;;;;;;12.57;3.75;;;7.70;99.90;;;;;;4994495;28;20042;-95
2023/11/05 00:16:50;;;;;;;10.25;4.10;;;7.70;99.90;;;;;;4987769;28;20090;-96
2023/11/05 00:19:16;;;;;;;6.95;3.67;;;7.70;99.90;;;;;;4985250;28;20037;-94
2023/11/05 00:21:43;;;;;;;9.88;3.28;;;7.70;99.90;;;;;;4986407;28;20031;-96
2023/11/05 00:24:09;;;;;;;10.45;4.28;;;7.70;99.90;;;;;;4985796;28;20026;-94
2023/11/05 00:26:34;;;;;;;10.23;3.53;;;7.70;99.90;;;;;;4965970;28;20162;-94
2023/11/05 00:29:00;;;;;;;7.18;4.40;;;7.70;99.90;;;;;;4969201;28;20046;-95
2023/11/05 00:31:26;;;;;;;8.48;4.07;;;7.70;99.90;;;;;;4990516;28;20027;-96
2023/11/05 00:33:51;;;;;;;10.98;3.88;;;7.70;99.90;;;;;;4992628;28;20023;-96
2023/11/05 00:36:17;;;;;;;11.40;3.30;;;7.70;99.90;;;;;;4987604;28;20022;-95
2023/11/05 00:38:43;;;;;;;10.00;3.80;;;7.60;99.90;;;;;;4976653;28;20058;-94
2023/11/05 00:41:08;;;;;;;9.52;4.03;;;7.60;99.90;;;;;;4973602;28;20027;-93
2023/11/05 00:43:34;;;;;;;13.60;4.30;;;7.60;99.90;;;;;;4993224;28;20046;-95
2023/11/05 00:46:00;;;;;;;6.50;3.42;;;7.60;99.90;;;;;;4976949;28;20361;-95
2023/11/05 00:48:25;;;;;;;7.32;3.72;;;7.60;99.90;;;;;;4989611;28;20122;-95
2023/11/05 00:50:51;;;;;;;12.68;3.75;;;7.60;99.90;;;;;;4974157;28;20029;-96
2023/11/05 00:53:17;;;;;;;9.60;4.20;;;7.60;99.90;;;;;;4975999;28;20042;-94
2023/11/05 00:55:42;;;;;;;11.57;3.50;;;7.60;99.90;;;;;;4974463;28;20094;-95
2023/11/05 00:58:08;;;;;;;4.70;2.65;;;7.60;99.90;;;;;;4991852;28;20030;-94
2023/11/05 01:00:34;;;;;;;6.60;3.50;;;7.60;99.90;;;;;;4990157;28;20046;-95
2023/11/05 01:02:59;;;;;;;8.45;3.28;;;7.60;99.90;;;;;;4970710;28;20031;-95
2023/11/05 01:05:25;;;;;;;7.97;3.30;;;7.60;99.90;;;;;;4990453;28;20089;-95
2023/11/05 01:07:50;;;;;;;12.55;5.32;;;7.60;99.90;;;;;;4990609;28;20023;-95
2023/11/05 01:10:16;;;;;;;8.45;3.60;;;7.60;99.90;;;;;;4992393;28;20041;-96
2023/11/05 01:12:42;;;;;;;10.75;3.38;;;7.60;99.90;;;;;;4993557;28;20023;-95
2023/11/05 01:15:08;;;;;;;6.63;3.20;;;7.60;99.90;;;;;;4988436;28;20034;-95
2023/11/05 01:17:34;;;;;;;6.95;2.90;;;7.60;99.90;;;;;;4987998;28;20031;-95
2023/11/05 01:20:00;;;;;;;8.07;3.35;;;7.50;99.90;;;;;;4969216;28;20031;-95
2023/11/05 01:22:26;;;;;;;11.02;3.65;;;7.50;99.90;;;;;;4986690;28;20468;-95
2023/11/05 01:24:51;;;;;;;7.00;2.80;;;7.50;99.90;;;;;;4970544;28;20038;-95
2023/11/05 01:27:17;;;;;;;11.00;2.95;;;7.50;99.90;;;;;;4971198;28;20121;-94
2023/11/05 01:29:43;;;;;;;5.25;2.60;;;7.50;99.90;;;;;;4970995;28;20030;-95
2023/11/05 01:32:08;;;;;;;7.15;3.20;;;7.50;99.90;;;;;;4971624;28;20489;-95
2023/11/05 01:34:34;;;;;;;8.27;2.88;;;7.50;99.90;;;;;;4971199;28;20114;-95
2023/11/05 01:37:00;;;;;;;7.63;2.88;;;7.50;99.90;;;;;;4987762;28;20042;-93
2023/11/05 01:39:26;;;;;;;7.07;2.72;;;7.40;99.90;;;;;;4987450;28;20030;-96
2023/11/05 01:41:52;;;;;;;11.98;3.13;;;7.40;99.90;;;;;;4973565;28;20035;-95
2023/11/05 01:44:19;;;;;;;7.38;2.50;;;7.40;99.90;;;;;;4982179;28;20042;-95
2023/11/05 01:46:44;;;;;;;11.25;2.25;;;7.50;99.90;;;;;;4989996;28;20030;-95
2023/11/05 01:49:11;;;;;;;4.93;2.10;;;7.40;99.90;;;;;;4986862;28;20038;-96
2023/11/05 01:51:37;;;;;;;6.93;2.35;;;7.40;99.90;;;;;;4969013;28;20027;-95
2023/11/05 01:54:03;;;;;;;10.60;2.20;;;7.40;99.90;;;;;;4989902;28;20037;-96
2023/11/05 01:56:31;;;;;;;12.50;2.63;;;7.50;99.90;;;;;;4991691;28;20043;-96
2023/11/05 01:58:58;;;;;;;10.23;1.85;;;7.50;99.90;;;;;;4974890;28;20026;-94
2023/11/05 02:01:27;;;;;;;9.52;2.35;;;7.50;99.90;;;;;;4974487;28;20113;-93
2023/11/05 02:03:53;;;;;;;6.57;2.40;;;7.50;99.90;;;;;;4992884;28;20153;-92
2023/11/05 02:06:19;;;;;;;5.63;3.05;;;7.50;99.90;;;;;;4994266;28;20094;-95
2023/11/05 02:08:44;;;;;;;12.23;2.35;;;7.50;99.90;;;;;;4976353;28;20019;-95
2023/11/05 02:11:10;;;;;;;11.25;2.53;;;7.50;99.90;;;;;;4994587;28;20034;-92
2023/11/05 02:13:53;;;;;;;5.60;2.20;;;7.50;99.90;;;;;;4977599;28;20053;-94
2023/11/05 02:16:21;;;;;;;8.93;2.40;;;7.50;99.90;;;;;;4989991;28;20030;-92
2023/11/05 02:18:48;;;;;;;5.25;2.22;;;7.50;99.90;;;;;;4993001;28;20026;-91
2023/11/05 02:21:30;;;;;;;8.68;2.40;;;7.50;99.90;;;;;;4991533;28;20039;-93
2023/11/05 02:23:56;;;;;;;7.97;2.33;;;7.50;99.90;;;;;;4992434;28;20023;-93
2023/11/05 02:26:22;;;;;;;11.32;2.78;;;7.50;99.90;;;;;;4989937;28;20035;-92
2023/11/05 02:28:47;;;;;;;6.10;1.92;;;7.50;99.90;;;;;;4974178;28;20110;-93
2023/11/05 02:31:13;;;;;;;9.07;2.35;;;7.50;99.90;;;;;;4994350;28;20033;-92
2023/11/05 02:33:43;;;;;;;8.80;2.42;;;7.50;99.90;;;;;;4978140;28;20038;-94
2023/11/05 02:36:12;;;;;;;4.53;2.00;;;7.60;99.90;;;;;;4992589;28;20023;-95
2023/11/05 02:38:38;;;;;;;14.48;2.42;;;7.60;99.90;;;;;;4979577;28;20031;-95
2023/11/05 02:41:06;;;;;;;8.00;2.10;;;7.60;99.90;;;;;;4980169;28;20038;-96
2023/11/05 02:43:32;;;;;;;7.88;1.85;;;7.60;99.90;;;;;;4979583;28;20058;-95
2023/11/05 02:45:59;;;;;;;5.28;1.90;;;7.60;99.90;;;;;;4974413;28;20143;-96
2023/11/05 02:48:25;;;;;;;4.85;2.10;;;7.60;99.90;;;;;;4976954;28;20030;-95
2023/11/05 02:50:50;;;;;;;3.92;1.77;;;7.60;99.90;;;;;;4982833;28;20022;-94
2023/11/05 02:53:16;;;;;;;6.45;1.73;;;7.60;99.90;;;;;;4959778;28;20090;-94
2023/11/05 02:55:42;;;;;;;4.53;1.90;;;7.60;99.90;;;;;;4985152;28;20090;-93
2023/11/05 02:58:11;;;;;;;9.27;1.77;;;7.60;99.90;;;;;;4987374;28;20037;-95
2023/11/05 03:00:37;;;;;;;6.57;2.03;;;7.60;99.90;;;;;;4973082;28;20034;-93
2023/11/05 03:03:02;;;;;;;9.20;2.08;;;7.60;99.90;;;;;;4973519;28;20034;-95
2023/11/05 03:05:28;;;;;;;9.43;1.60;;;7.60;99.90;;;;;;4973633;28;20046;-94
2023/11/05 03:07:54;;;;;;;5.07;1.73;;;7.60;99.90;;;;;;4990334;28;20027;-93
2023/11/05 03:10:19;;;;;;;7.55;1.98;;;7.60;99.90;;;;;;4991912;28;20037;-93
2023/11/05 03:12:45;;;;;;;6.55;1.90;;;7.60;99.90;;;;;;4992723;28;20026;-94
2023/11/05 03:15:11;;;;;;;8.63;2.40;;;7.60;99.90;;;;;;4975618;28;20027;-95
2023/11/05 03:17:37;;;;;;;7.00;2.22;;;7.60;99.90;;;;;;4975649;28;20189;-95
2023/11/05 03:20:07;;;;;;;8.25;1.63;;;7.60;99.90;;;;;;4974722;28;20037;-94
2023/11/05 03:22:37;;;;;;;10.38;2.58;;;7.60;99.90;;;;;;4975214;28;20025;-94
2023/11/05 03:25:06;;;;;;;7.10;1.92;;;7.60;99.90;;;;;;4972225;28;20023;-95
2023/11/05 03:27:32;;;;;;;5.80;1.88;;;7.60;99.90;;;;;;4973896;28;20027;-94
2023/11/05 03:29:59;;;;;;;5.22;1.52;;;7.60;99.90;;;;;;4991588;28;20098;-96
2023/11/05 03:32:24;;;;;;;3.28;1.60;;;7.60;99.90;;;;;;4972582;28;20019;-94
2023/11/05 03:34:50;;;;;;;6.47;1.55;;;7.60;99.90;;;;;;4969487;28;20026;-94
2023/11/05 03:37:16;;;;;;;6.30;2.47;;;7.60;99.90;;;;;;4971458;28;20042;-95
2023/11/05 03:39:43;;;;;;;3.97;1.63;;;7.50;99.90;;;;;;4990112;28;20019;-94
2023/11/05 03:42:10;;;;;;;7.15;1.50;;;7.50;99.90;;;;;;4976047;28;20055;-96
2023/11/05 03:44:36;;;;;;;4.78;1.60;;;7.50;99.90;;;;;;4975604;28;20051;-94
2023/11/05 03:47:02;;;;;;;5.32;1.30;;;7.50;99.90;;;;;;4975815;28;20077;-95
2023/11/05 03:49:28;;;;;;;3.70;1.50;;;7.50;99.90;;;;;;4982135;28;20041;-95
2023/11/05 03:51:54;;;;;;;5.88;1.48;;;7.50;99.90;;;;;;4957414;28;20035;-96
2023/11/05 03:54:19;;;;;;;4.05;1.40;;;7.50;99.90;;;;;;4982433;28;20030;-94
2023/11/05 03:56:46;;;;;;;8.82;1.65;;;7.50;99.90;;;;;;4968850;28;20046;-92
2023/11/05 03:59:12;;;;;;;5.95;1.73;;;7.50;99.90;;;;;;4970566;28;20388;-95
2023/11/05 04:01:38;;;;;;;8.13;1.40;;;7.50;99.90;;;;;;4968711;28;20054;-95
2023/11/05 04:04:03;;;;;;;7.90;2.22;;;7.40;99.90;;;;;;4986662;28;20038;-93
2023/11/05 04:06:29;;;;;;;4.80;1.52;;;7.40;99.90;;;;;;4986704;28;20022;-95
2023/11/05 04:08:55;;;;;;;4.70;1.40;;;7.40;99.90;;;;;;4970293;28;20056;-93
2023/11/05 04:11:21;;;;;;;5.72;1.83;;;7.40;99.90;;;;;;4966562;28;20043;-94
2023/11/05 04:13:46;;;;;;;9.77;1.75;;;7.30;99.90;;;;;;4985787;28;20033;-93
2023/11/05 04:16:14;;;;;;;7.60;2.10;;;7.30;99.90;;;;;;4971381;28;20023;-94
2023/11/05 04:18:41;;;;;;;8.63;2.53;;;7.30;99.90;;;;;;4969690;28;20038;-95
2023/11/05 04:21:07;;;;;;;8.65;3.28;;;7.30;99.90;;;;;;4968119;28;20019;-94
2023/11/05 04:23:33;;;;;;;8.63;2.75;;;7.30;99.90;;;;;;4967711;28;20046;-94
2023/11/05 04:25:59;;;;;;;7.65;3.45;;;7.40;99.90;;;;;;4962907;28;20033;-96
2023/11/05 04:28:24;;;;;;;12.18;3.97;;;7.30;99.90;;;;;;4983355;28;20047;-95
2023/11/05 04:30:50;;;;;;;12.60;4.78;;;7.30;99.90;;;;;;4981702;28;20023;-95
2023/11/05 04:33:16;;;;;;;15.18;5.43;;;7.40;99.90;;;;;;4983970;28;20409;-96
2023/11/05 04:35:42;;;;;;;10.75;3.88;;;7.30;99.90;;;;;;4968061;28;20105;-96
2023/11/05 04:38:08;;;;;;;7.13;3.85;;;7.30;99.90;;;;;;4966593;28;20405;-95
2023/11/05 04:40:34;;;;;;;9.10;3.55;;;7.30;99.90;;;;;;4967891;28;20035;-95
2023/11/05 04:42:59;;;;;;;10.30;4.15;;;7.40;99.90;;;;;;4984735;28;20058;-95
2023/11/05 04:45:25;;;;;;;10.05;4.00;;;7.30;99.90;;;;;;4964417;29;20027;-95
2023/11/05 04:47:51;;;;;;;13.63;4.20;;;7.30;99.90;;;;;;4983679;28;20121;-95
2023/11/05 04:50:16;;;;;;;8.32;4.00;;;7.30;99.90;;;;;;4984004;28;20070;-95
2023/11/05 04:52:42;;;;;;;11.30;3.53;;;7.30;99.90;;;;;;4986822;28;20198;-94
2023/11/05 04:55:08;;;;;;;15.23;4.47;;;7.20;99.90;;;;;;4968887;28;20026;-95
2023/11/05 04:57:34;;;;;;;10.25;4.85;;;7.20;99.90;;;;;;4972129;28;20023;-94
2023/11/05 04:59:59;;;;;;;12.57;4.85;;;7.20;99.90;;;;;;4970422;28;20109;-94
2023/11/05 05:02:25;;;;;;;6.53;3.92;;;7.20;99.90;;;;;;4986910;28;20034;-95
2023/11/05 05:04:51;;;;;;;14.65;4.82;;;7.20;99.90;;;;;;4988192;28;20025;-94
2023/11/05 05:07:18;;;;;;;8.45;4.15;;;7.20;99.90;;;;;;4987416;28;20022;-94
2023/11/05 05:09:44;;;;;;;9.80;5.07;;;7.20;99.90;;;;;;4969072;28;20042;-94
2023/11/05 05:12:09;;;;;;;12.88;4.68;;;7.20;99.90;;;;;;4987172;28;20035;-95
2023/11/05 05:14:35;;;;;;;14.10;4.50;;;7.20;99.90;;;;;;4970670;28;20142;-95
2023/11/05 05:17:01;;;;;;;8.70;4.47;;;7.20;99.90;;;;;;4987230;28;20019;-95
2023/11/05 05:19:27;;;;;;;10.40;4.15;;;7.20;99.90;;;;;;4987502;28;20034;-95
2023/11/05 05:21:52;;;;;;;9.88;4.38;;;7.20;99.90;;;;;;4986446;28;20076;-95
2023/11/05 05:24:18;;;;;;;7.75;4.70;;;7.20;99.90;;;;;;4987674;28;20388;-96
2023/11/05 05:26:44;;;;;;;5.60;3.95;;;7.20;99.90;;;;;;4987135;28;20035;-95
2023/11/05 05:29:09;;;;;;;11.15;4.57;;;7.20;99.90;;;;;;4971364;28;20050;-95
2023/11/05 05:31:35;;;;;;;10.55;4.35;;;7.20;99.90;;;;;;4974242;28;20062;-94
2023/11/05 05:34:01;;;;;;;12.32;4.78;;;7.20;99.90;;;;;;4994417;28;20074;-96
2023/11/05 05:36:27;;;;;;;9.63;4.00;;;7.20;99.90;;;;;;4977686;28;20023;-94
2023/11/05 05:38:53;;;;;;;13.10;4.45;;;7.20;99.90;;;;;;4976325;28;20029;-94
2023/11/05 05:41:18;;;;;;;9.90;4.10;;;7.20;99.90;;;;;;4977021;28;20038;-95
2023/11/05 05:43:44;;;;;;;12.70;4.60;;;7.10;99.90;;;;;;4991602;28;20057;-94
2023/11/05 05:46:14;;;;;;;8.05;3.97;;;7.10;99.90;;;;;;4976287;28;20080;-94
2023/11/05 05:48:43;;;;;;;8.00;3.50;;;7.10;99.90;;;;;;4991199;28;20094;-95
2023/11/05 05:51:09;;;;;;;6.68;3.65;;;7.00;99.90;;;;;;4992512;28;20054;-96
2023/11/05 05:53:35;;;;;;;13.02;3.63;;;7.00;99.90;;;;;;4993090;28;20022;-92
2023/11/05 05:56:01;;;;;;;6.90;3.38;;;7.00;99.90;;;;;;4975038;28;20116;-94
2023/11/05 05:58:26;;;;;;;7.72;3.35;;;7.00;99.90;;;;;;4992228;28;20090;-95
2023/11/05 06:00:52;;;;;;;5.88;2.90;;;7.00;99.90;;;;;;4992057;28;20468;-95
2023/11/05 06:03:17;;;;;;;9.20;3.20;;;6.90;99.90;;;;;;4975854;28;20058;-96
2023/11/05 06:05:43;;;;;;;10.15;3.53;;;6.90;99.90;;;;;;4974704;28;20051;-95
2023/11/05 06:08:09;;;;;;;6.90;3.58;;;6.90;99.90;;;;;;4973606;28;20045;-96
2023/11/05 06:10:35;;;;;;;10.15;4.30;;;6.90;99.90;;;;;;4973323;28;20050;-96
2023/11/05 06:13:00;;;;;;;11.48;4.80;;;6.90;99.90;;;;;;4988714;28;20064;-94
2023/11/05 06:15:26;;;;;;;7.15;4.07;;;6.90;99.90;;;;;;4974783;28;20054;-95
2023/11/05 06:17:52;;;;;;;12.10;5.43;;;6.90;99.90;;;;;;4973400;28;20038;-95
2023/11/05 06:20:17;;;;;;;9.40;5.90;;;6.90;99.90;;;;;;4988304;28;20030;-94
2023/11/05 06:22:43;;;;;;;16.90;7.82;;;6.90;99.90;;;;;;4974892;28;20030;-95
2023/11/05 06:25:09;;;;;;;13.15;7.88;;;6.90;99.90;;;;;;4973800;28;20031;-95
2023/11/05 06:27:37;;;;;;;19.58;6.97;;;6.90;99.90;;;;;;4987745;28;20023;-96
2023/11/05 06:30:05;;;;;;;18.50;8.02;;;6.80;99.90;;;;;;4983472;28;20254;-94
2023/11/05 06:32:33;;;;;;;18.45;8.30;;;6.80;99.90;;;;;;4981840;28;20041;-94
2023/11/05 06:34:58;;;;;;;15.82;7.90;;;6.80;99.90;;;;;;4967575;28;20023;-95
2023/11/05 06:37:24;;;;;;;21.10;8.10;;;6.80;99.90;;;;;;4985187;28;20034;-95
2023/11/05 06:39:50;;;;;;;14.57;8.10;;;6.80;99.90;;;;;;4986728;28;20050;-95
2023/11/05 06:42:16;;;;;;;13.07;7.07;;;6.80;99.90;;;;;;4983553;28;20019;-94
2023/11/05 06:44:42;;;;;;;11.57;6.88;;;6.80;99.90;;;;;;4965339;28;20054;-95
2023/11/05 06:47:08;;;;;;;15.82;8.20;;;6.70;99.90;;;;;;4985463;28;20022;-94
2023/11/05 06:49:34;;;;;;;18.83;7.18;;;6.70;99.90;;;;;;4967367;28;20070;-93
2023/11/05 06:51:59;;;;;;;16.92;7.28;;;6.70;99.90;;;;;;4986675;28;20019;-95
2023/11/05 06:54:25;;;;;;;10.52;6.40;;;6.70;99.90;;;;;;4970938;28;20038;-94
2023/11/05 06:56:51;;;;;;;8.77;6.20;;;6.70;99.90;;;;;;4988530;28;20023;-93
2023/11/05 06:59:16;;;;;;;11.13;6.28;;;6.70;99.90;;;;;;4986628;28;20065;-96
2023/11/05 07:01:43;;;;;;;15.50;6.70;;;6.70;99.90;;;;;;4985377;28;20019;-95
2023/11/05 07:04:09;;;;;;;12.18;5.80;;;6.60;99.90;;;;;;4971546;28;20031;-94
2023/11/05 07:06:35;;;;;;;16.40;7.80;;;6.60;99.90;;;;;;4969000;28;20470;-94
2023/11/05 07:09:00;;;;;;;9.15;4.80;;;6.60;99.90;;;;;;4988067;28;20103;-94
2023/11/05 07:11:26;;;;;;;14.32;6.13;;;6.60;99.90;;;;;;4988359;28;20110;-94
2023/11/05 07:13:52;;;;;;;11.02;6.25;;;6.60;99.90;;;;;;4969778;28;20488;-94
2023/11/05 07:16:18;;;;;;;14.90;6.72;;;6.50;99.90;;;;;;4984950;28;20033;-94
2023/11/05 07:18:44;;;;;;;13.40;5.60;;;6.50;99.90;;;;;;4984082;28;20041;-96
2023/11/05 07:21:14;;;;;;;9.55;5.30;;;6.50;99.90;;;;;;4970227;28;20031;-94
2023/11/05 07:23:40;;;;;;;;;;;6.50;99.90;;;;;;4984057;28;20094;-94
2023/11/05 07:26:06;;;;;;;11.52;4.78;;;6.50;99.90;;;;;;4984617;28;19960;-94
2023/11/05 07:28:32;;;;;;;8.30;4.78;;;6.50;99.90;;;;;;4966765;28;20030;-93
2023/11/05 07:30:58;;;;;;;15.27;4.40;;;6.50;99.90;;;;;;4968088;28;20033;-93
2023/11/05 07:33:24;;;;;;;10.05;5.03;;;6.50;99.90;;;;;;4969535;28;20019;-93
2023/11/05 07:35:49;;;;;;;10.65;4.63;;;6.50;99.90;;;;;;4970714;28;20046;-95
2023/11/05 07:38:16;;;;;;;9.48;5.40;;;6.50;99.90;;;;;;4969784;28;20035;-94
2023/11/05 07:40:42;;;;;;;11.13;5.15;;;6.50;99.90;;;;;;4969768;28;20055;-92
2023/11/05 07:43:07;;;;;;;9.65;4.57;;;6.50;99.90;;;;;;4967971;28;20423;-93
2023/11/05 07:45:33;;;;;;;10.35;5.60;;;6.50;99.90;;;;;;4967524;28;20384;-94
2023/11/05 07:47:59;;;;;;;10.93;5.35;;;6.50;99.90;;;;;;4985029;28;20026;-94
2023/11/05 07:50:25;;;;;;;12.40;5.30;;;6.50;99.90;;;;;;4971163;28;20035;-94
2023/11/05 07:52:52;;;;;;;9.10;4.63;;;6.50;99.90;;;;;;4989360;28;20027;-94
2023/11/05 07:55:18;;;;;;;8.20;4.50;;;6.60;99.90;;;;;;4989899;28;20034;-94
2023/11/05 07:57:45;;;;;;;7.35;3.88;;;6.60;99.90;;;;;;4970760;28;20029;-94
2023/11/05 08:00:15;;;;;;;8.18;3.70;;;6.60;99.90;;;;;;4967190;28;20046;-94
2023/11/05 08:02:41;;;;;;;5.38;3.55;;;6.60;99.90;;;;;;4965946;28;20026;-93
2023/11/05 08:05:08;;;;;;;6.95;3.90;;;6.60;99.90;;;;;;4980499;28;20102;-94
2023/11/05 08:07:34;;;;;;;7.47;3.28;;;6.60;99.90;;;;;;4967867;28;20019;-93
2023/11/05 08:09:59;;;;;;;9.85;3.50;;;6.70;99.90;;;;;;4956874;28;20185;-95
2023/11/05 08:12:25;;;;;;;11.00;4.45;;;6.70;99.90;;;;;;4971184;28;20039;-95
2023/11/05 08:14:51;;;;;;;8.75;2.85;;;6.70;99.90;;;;;;4962490;28;20039;-94
2023/11/05 08:17:16;;;;;;;6.82;2.35;;;6.80;99.90;;;;;;4962910;28;20019;-95
2023/11/05 08:19:42;;;;;;;6.68;2.83;;;6.90;99.90;;;;;;4975366;28;20027;-94
2023/11/05 08:22:08;;;;;;;9.57;3.17;;;7.00;99.90;;;;;;4962208;28;20333;-93
2023/11/05 08:24:34;;;;;;;8.23;3.05;;;7.00;99.90;;;;;;4963015;28;20030;-93
2023/11/05 08:27:00;;;;;;;9.25;3.78;;;7.10;99.90;;;;;;4963347;28;20034;-93
2023/11/05 08:29:27;;;;;;;6.78;3.00;;;7.20;99.90;;;;;;4958571;28;20031;-92
2023/11/05 08:31:52;;;;;;;5.38;2.70;;;7.30;99.90;;;;;;4979226;28;20037;-93
2023/11/05 08:34:18;;;;;;;5.15;2.25;;;7.40;99.90;;;;;;4963621;28;20474;-94
2023/11/05 08:36:44;;;;;;;4.00;2.33;;;7.40;99.90;;;;;;4963393;28;20538;-94
2023/11/05 08:39:10;;;;;;;16.08;4.20;;;7.50;99.90;;;;;;4980940;28;20546;-93
2023/11/05 08:41:35;;;;;;;7.53;3.60;;;7.60;99.90;;;;;;4961577;28;20091;-93
2023/11/05 08:44:01;;;;;;;8.73;3.67;;;7.70;99.90;;;;;;4981558;28;20077;-93
2023/11/05 08:46:29;;;;;;;7.85;3.80;;;7.70;99.90;;;;;;4963399;28;20073;-93
2023/11/05 08:48:55;;;;;;;6.25;3.45;;;7.80;99.90;;;;;;4963019;28;20082;-93
2023/11/05 08:51:28;;;;;;;6.00;3.05;;;7.80;99.90;;;;;;4981153;28;20023;-92
2023/11/05 08:53:54;;;;;;;7.78;3.70;;;7.80;99.90;;;;;;4963287;28;20034;-93
2023/11/05 08:56:23;;;;;;;5.05;3.17;;;7.80;99.90;;;;;;4968120;28;20031;-93
2023/11/05 08:58:49;;;;;;;8.13;3.22;;;7.80;99.90;;;;;;4965714;28;20042;-94
2023/11/05 09:01:19;;;;;;;10.18;3.00;;;7.90;99.90;;;;;;4985535;28;20019;-95
2023/11/05 09:03:46;;;;;;;6.55;3.00;;;7.90;99.90;;;;;;4975228;28;20027;-96
2023/11/05 09:06:12;;;;;;;7.93;3.08;;;7.90;99.90;;;;;;4992112;28;20050;-94
2023/11/05 09:08:38;;;;;;;5.45;2.70;;;8.00;99.90;;;;;;4990448;28;20034;-95
2023/11/05 09:11:08;;;;;;;6.07;2.40;;;8.00;99.90;;;;;;4973742;28;20041;-94
2023/11/05 09:13:35;;;;;;;7.47;3.15;;;8.10;99.90;;;;;;4987813;28;20619;-94
2023/11/05 09:16:01;;;;;;;3.72;2.40;;;8.10;99.90;;;;;;4987149;28;20031;-94
2023/11/05 09:18:28;;;;;;;7.60;2.85;;;8.20;99.90;;;;;;4990670;28;20030;-94
2023/11/05 09:20:56;;;;;;;5.88;2.30;;;8.30;99.90;;;;;;4974013;28;20050;-95
2023/11/05 09:23:22;;;;;;;11.20;2.78;;;8.30;99.90;;;;;;4993112;28;20025;-95
2023/11/05 09:25:48;;;;;;;5.70;2.88;;;8.40;99.90;;;;;;4972007;28;20027;-95
2023/11/05 09:28:13;;;;;;;6.22;2.75;;;8.50;99.90;;;;;;4967861;28;20073;-96
2023/11/05 09:30:42;;;;;;;4.45;2.70;;;8.60;99.90;;;;;;4981611;28;20057;-95
2023/11/05 09:33:08;;;;;;;4.85;3.28;;;8.60;99.90;;;;;;4980103;28;20032;-95
2023/11/05 09:35:34;;;;;;;6.57;3.28;;;8.70;99.90;;;;;;4980473;28;20026;-95
2023/11/05 09:38:02;;;;;;;6.72;2.72;;;8.80;99.90;;;;;;4965290;28;20037;-95
2023/11/05 09:40:27;;;;;;;7.90;3.00;;;8.80;99.90;;;;;;4986859;28;20026;-95
2023/11/05 09:43:00;;;;;;;8.00;3.25;;;8.80;99.90;;;;;;4988794;28;20039;-93
2023/11/05 09:45:33;;;;;;;6.40;3.28;;;8.80;99.90;;;;;;4990648;28;20023;-95
2023/11/05 09:48:05;;;;;;;5.55;3.15;;;8.80;99.90;;;;;;4991278;28;20019;-94
2023/11/05 09:50:37;;;;;;;7.72;3.42;;;8.80;99.90;;;;;;4980020;28;20050;-95
2023/11/05 09:53:11;;;;;;;4.28;2.92;;;8.80;99.90;;;;;;4982606;28;20029;-94
2023/11/05 09:55:41;;;;;;;6.75;3.40;;;8.80;99.90;;;;;;4964651;28;20030;-94
2023/11/05 09:58:07;;;;;;;4.22;2.67;;;8.80;99.90;;;;;;4980935;28;20054;-93
2023/11/05 10:00:33;;;;;;;7.07;3.22;;;8.90;99.90;;;;;;4979044;28;20026;-94
2023/11/05 10:03:05;;;;;;;9.10;2.80;;;8.80;99.90;;;;;;4977099;28;20034;-94
2023/11/05 10:05:37;;;;;;;5.07;2.60;;;8.80;99.90;;;;;;4975509;28;20825;-93
2023/11/05 10:08:07;;;;;;;6.95;2.67;;;8.80;99.90;;;;;;4975604;28;20031;-92
2023/11/05 10:10:35;;;;;;;4.68;2.55;;;8.90;99.90;;;;;;4959265;28;20034;-92
2023/11/05 10:13:07;;;;;;;5.82;2.72;;;8.90;99.90;;;;;;4974959;28;20088;-92
2023/11/05 10:15:41;;;;;;;5.60;2.15;;;9.00;99.90;;;;;;4975741;28;20023;-93
2023/11/05 10:18:14;;;;;;;2.90;2.30;;;9.10;99.90;;;;;;4981285;28;20030;-93
2023/11/05 10:20:58;;;;;;;8.88;2.22;;;9.20;99.90;;;;;;4981296;28;20018;-94
2023/11/05 10:23:25;;;;;;;5.50;2.00;;;9.40;99.90;;;;;;4975462;28;20026;-94
2023/11/05 10:25:52;;;;;;;5.55;2.03;;;9.60;99.90;;;;;;4959343;28;20134;-93
2023/11/05 10:28:22;;;;;;;8.50;2.00;;;9.70;99.90;;;;;;4974850;28;20035;-94
2023/11/05 10:30:51;;;;;;;10.07;1.92;;;9.80;99.90;;;;;;4974697;28;20034;-93
2023/11/05 10:33:18;;;;;;;3.13;1.85;;;9.90;99.90;;;;;;4974405;28;20023;-92
2023/11/05 10:35:44;;;;;;;5.25;2.00;;;9.90;99.90;;;;;;4974562;28;20072;-92
2023/11/05 10:38:14;;;;;;;4.65;1.85;;;9.90;99.90;;;;;;4973601;28;20034;-93
2023/11/05 10:40:40;;;;;;;7.63;1.80;;;9.90;99.90;;;;;;4957155;28;20031;-93
2023/11/05 10:43:07;;;;;;;5.57;1.83;;;9.90;99.90;;;;;;4971204;28;20031;-93
2023/11/05 10:45:34;;;;;;;3.80;1.80;;;9.90;99.90;;;;;;4975352;28;20039;-94
2023/11/05 10:48:02;;;;;;;5.07;2.03;;;10.00;99.90;;;;;;4975200;28;20038;-92
2023/11/05 10:50:29;;;;;;;4.68;1.77;;;10.40;99.90;;;;;;4955810;28;20035;-95
2023/11/05 10:52:58;;;;;;;4.72;1.88;;;10.80;99.90;;;;;;4974053;28;20022;-93
2023/11/05 10:55:36;;;;;;;5.22;2.20;;;11.30;99.90;;;;;;4973366;28;20043;-93
2023/11/05 10:58:03;;;;;;;7.07;2.28;;;11.90;99.90;;;;;;4975077;28;20049;-92
2023/11/05 11:00:31;;;;;;;4.93;1.50;;;12.40;99.90;;;;;;4956036;28;20373;-92
2023/11/05 11:03:12;;;;;;;3.70;1.95;;;12.80;99.90;;;;;;4957338;28;20027;-93
2023/11/05 11:05:44;;;;;;;;;;;13.20;99.90;;;;;;4957041;28;20385;-96
2023/11/05 11:08:23;;;;;;;4.13;2.30;;;13.50;99.90;;;;;;4975238;28;19937;-94
2023/11/05 11:11:08;;;;;;;3.50;2.20;;;13.70;99.90;;;;;;4972142;28;20034;-94
2023/11/05 11:13:34;;;;;;;5.10;2.50;;;13.80;99.90;;;;;;4973331;28;20035;-95
2023/11/05 11:16:03;;;;;;;6.13;2.80;;;14.00;99.90;;;;;;4956692;28;20035;-94
2023/11/05 11:18:32;;;;;;;5.53;2.63;;;14.20;99.90;;;;;;4950558;28;20808;-93
2023/11/05 11:21:01;;;;;;;7.80;3.65;;;14.20;99.90;;;;;;4974664;28;20034;-93
2023/11/05 11:23:26;;;;;;;10.45;2.97;;;14.10;99.90;;;;;;4970438;28;20019;-93
2023/11/05 11:26:00;;;;;;;7.82;2.85;;;13.70;99.90;;;;;;4973689;28;20029;-93
2023/11/05 11:28:31;;;;;;;5.80;3.40;;;13.40;99.90;;;;;;4957571;28;20041;-94
2023/11/05 11:30:57;;;;;;;5.65;2.45;;;13.20;99.90;;;;;;4974576;28;20031;-93
2023/11/05 11:33:24;;;;;;;8.10;2.45;;;12.90;99.90;;;;;;4976402;28;20090;-93
2023/11/05 11:35:50;;;;;;;7.68;2.30;;;12.60;99.90;;;;;;4974060;28;20095;-94
2023/11/05 11:38:17;;;;;;;7.65;2.05;;;12.30;99.90;;;;;;4973270;28;20030;-94
2023/11/05 11:40:57;;;;;;;13.32;2.63;;;12.00;99.90;;;;;;4972973;28;20050;-95
2023/11/05 11:43:23;;;;;;;5.72;1.75;;;11.70;99.90;;;;;;4972761;28;20051;-93
2023/11/05 11:45:49;;;;;;;5.35;2.28;;;11.50;99.90;;;;;;4972928;28;20050;-94
2023/11/05 11:48:16;;;;;;;4.38;1.90;;;11.50;99.90;;;;;;4972886;28;20109;-93
2023/11/05 11:50:52;;;;;;;4.35;2.00;;;11.50;99.90;;;;;;4956645;28;20133;-95
2023/11/05 11:53:40;;;;;;;6.30;2.28;;;11.70;99.90;;;;;;4973444;28;20062;-94
2023/11/05 11:56:06;;;;;;;5.65;1.90;;;12.00;99.90;;;;;;4956926;28;20038;-93
2023/11/05 11:58:40;;;;;;;4.35;1.85;;;12.30;99.90;;;;;;4984283;28;20038;-94
2023/11/05 12:01:12;;;;;;;4.05;1.70;;;12.80;99.90;;;;;;4976039;28;20031;-94
2023/11/05 12:03:38;;;;;;;4.30;1.50;;;13.30;99.90;;;;;;4975774;28;20061;-95
2023/11/05 12:06:04;;;;;;;4.60;1.90;;;13.60;99.90;;;;;;4977421;28;20082;-94
2023/11/05 12:08:43;;;;;;;2.55;1.80;;;13.70;99.90;;;;;;4960146;28;20020;-93
2023/11/05 12:11:12;;;;;;;3.22;1.40;;;13.60;99.90;;;;;;4975487;28;20022;-95
2023/11/05 12:13:42;;;;;;;3.40;1.67;;;13.40;99.90;;;;;;4981726;28;20038;-94
2023/11/05 12:16:09;;;;;;;4.93;1.80;;;13.10;99.90;;;;;;4984897;28;20031;-96
2023/11/05 12:18:36;;;;;;;4.70;2.15;;;13.10;99.90;;;;;;4991474;28;20007;-96
2023/11/05 12:21:02;;;;;;;4.53;1.75;;;13.10;99.90;;;;;;4993651;28;20050;-95
2023/11/05 12:23:29;;;;;;;3.72;2.25;;;13.00;99.90;;;;;;4992169;28;20011;-96
2023/11/05 12:25:59;;;;;;;3.42;1.67;;;12.90;99.90;;;;;;4989857;28;20029;-96
2023/11/05 12:28:27;;;;;;;3.45;1.50;;;12.70;99.90;;;;;;4980455;28;20092;-96
2023/11/05 12:30:55;;;;;;;3.40;1.63;;;12.60;99.90;;;;;;4997132;28;20019;-95
2023/11/05 12:33:23;;;;;;;2.80;1.50;;;12.40;99.90;;;;;;4994174;28;20058;-96
2023/11/05 12:35:50;;;;;;;3.05;1.17;;;12.20;99.90;;;;;;4986518;28;20042;-93
2023/11/05 12:38:19;;;;;;;4.57;1.55;;;12.20;99.90;;;;;;4982572;28;20019;-95
2023/11/05 12:40:46;;;;;;;5.35;1.88;;;12.20;99.90;;;;;;4995821;28;20018;-95
2023/11/05 12:43:12;;;;;;;4.10;2.00;;;12.20;99.90;;;;;;4993750;28;20062;-96
2023/11/05 12:45:38;;;;;;;2.60;1.50;;;12.10;99.90;;;;;;4993363;28;20027;-96
2023/11/05 12:48:04;;;;;;;5.13;1.90;;;12.00;99.90;;;;;;4995777;28;20014;-96
2023/11/05 12:50:30;;;;;;;9.35;2.63;;;11.90;99.90;;;;;;4989485;28;20102;-96
2023/11/05 12:52:56;;;;;;;5.57;2.17;;;11.70;99.90;;;;;;4992265;28;20023;-96